createdAt,value
2022-10-23T00:04:52.143Z,101916.94
2022-10-23T00:09:54.014Z,101922.94
2022-10-23T00:14:55.544Z,101919.16
2022-10-23T00:19:57.149Z,101924.66
2022-10-23T00:24:58.682Z,101907.53
2022-10-23T00:30:00.668Z,101898.47
2022-10-23T00:35:02.349Z,101890.88
2022-10-23T00:40:05.131Z,101882.19
2022-10-23T00:45:33.589Z,101905.38
2022-10-23T00:50:35.076Z,101914.84
2022-10-23T00:55:38.445Z,101923.75
2022-10-23T01:00:46.097Z,101921.47
2022-10-23T01:06:02.413Z,101935.19
2022-10-23T01:11:31.628Z,101935.31
2022-10-23T01:16:44.439Z,101926.78
2022-10-23T01:21:55.719Z,101923.50
2022-10-23T01:27:18.034Z,101912.50
2022-10-23T01:32:38.981Z,101903.63
2022-10-23T01:37:51.166Z,101916.75
2022-10-23T01:42:57.279Z,101921.53
2022-10-23T01:48:04.534Z,101915.00
2022-10-23T01:53:11.915Z,101904.81
2022-10-23T01:58:15.648Z,101917.69
2022-10-23T02:03:19.469Z,101903.13
2022-10-23T02:08:21.240Z,101904.09
2022-10-23T02:13:33.854Z,101887.41
2022-10-23T02:18:51.901Z,101888.72
2022-10-23T02:24:05.211Z,101875.28
2022-10-23T02:29:17.149Z,101866.34
2022-10-23T02:34:21.112Z,101877.72
2022-10-23T02:39:26.817Z,101883.41
2022-10-23T02:44:37.827Z,101888.84
2022-10-23T02:49:49.901Z,101892.69
2022-10-23T02:55:22.676Z,101898.59
2022-10-23T03:00:24.973Z,101897.78
2022-10-23T03:05:34.250Z,101902.88
2022-10-23T03:10:35.904Z,101912.19
2022-10-23T03:15:37.431Z,101909.97
2022-10-23T03:20:38.907Z,101910.66
2022-10-23T03:25:40.485Z,101915.22
2022-10-23T03:37:10.560Z,101895.59
2022-10-23T03:42:12.228Z,101894.03
2022-10-23T03:47:13.762Z,101881.53
2022-10-23T03:52:16.576Z,101885.41
2022-10-23T03:57:18.079Z,101876.00
2022-10-23T04:02:19.737Z,101873.72
2022-10-23T04:07:21.273Z,101874.72
2022-10-23T04:12:23.350Z,101870.56
2022-10-23T04:22:33.708Z,101861.03
2022-10-23T04:27:35.265Z,101852.09
2022-10-23T04:32:36.967Z,101844.31
2022-10-23T04:37:39.575Z,101835.19
2022-10-23T04:42:42.005Z,101834.47
2022-10-23T04:47:43.781Z,101843.28
2022-10-23T04:52:45.561Z,101834.41
2022-10-23T04:58:19.757Z,101820.66
2022-10-23T05:03:22.318Z,101810.03
2022-10-23T05:08:24.208Z,101799.53
2022-10-23T05:13:40.964Z,101797.25
2022-10-23T05:18:47.091Z,101798.13
2022-10-23T05:23:48.789Z,101779.91
2022-10-23T05:28:50.938Z,101772.22
2022-10-23T05:33:55.394Z,101754.47
2022-10-23T05:38:58.197Z,101764.06
2022-10-23T05:44:00.861Z,101758.88
2022-10-23T05:49:27.453Z,101765.25
2022-10-23T05:54:51.612Z,101762.91
2022-10-23T06:00:20.945Z,101764.75
2022-10-23T06:05:34.431Z,101752.69
2022-10-23T06:10:56.831Z,101735.16
2022-10-23T06:15:58.416Z,101726.44
2022-10-23T06:21:01.635Z,101727.34
2022-10-23T06:26:05.129Z,101718.47
2022-10-23T06:31:20.502Z,101713.44
2022-10-23T06:36:26.520Z,101724.03
2022-10-23T06:41:34.213Z,101718.22
2022-10-23T06:46:36.121Z,101696.88
2022-10-23T06:52:18.471Z,101694.19
2022-10-23T06:57:30.450Z,101691.72
2022-10-23T07:02:31.952Z,101695.44
2022-10-23T07:07:33.775Z,101696.59
2022-10-23T07:12:35.507Z,101691.00
2022-10-23T07:17:59.583Z,101698.16
2022-10-23T07:23:12.844Z,101683.91
2022-10-23T07:28:15.002Z,101673.78
2022-10-23T07:33:16.706Z,101676.72
2022-10-23T07:38:34.253Z,101673.72
2022-10-23T07:43:37.080Z,101667.41
2022-10-23T07:48:39.178Z,101658.72
2022-10-23T07:53:42.480Z,101654.84
2022-10-23T07:58:58.757Z,101644.75
2022-10-23T08:04:01.149Z,101637.25
2022-10-23T08:09:06.791Z,101630.66
2022-10-23T08:14:11.601Z,101619.66
2022-10-23T08:19:17.053Z,101629.28
2022-10-23T08:24:20.638Z,101620.03
2022-10-23T08:29:29.403Z,101593.34
2022-10-23T08:34:31.433Z,101591.84
2022-10-23T08:39:35.415Z,101566.94
2022-10-23T08:45:21.435Z,101552.47
2022-10-23T08:50:30.889Z,101537.75
2022-10-23T08:55:40.532Z,101516.34
2022-10-23T09:00:43.606Z,101492.38
2022-10-23T09:06:13.808Z,101478.81
2022-10-23T09:11:32.888Z,101460.25
2022-10-23T09:16:40.363Z,101444.06
2022-10-23T09:21:44.499Z,101436.56
2022-10-23T09:26:50.979Z,101418.84
2022-10-23T09:31:55.401Z,101409.56
2022-10-23T09:37:02.707Z,101397.78
2022-10-23T09:42:21.508Z,101369.34
2022-10-23T09:47:25.446Z,101364.09
2022-10-23T09:52:37.355Z,101345.31
2022-10-23T09:57:44.139Z,101339.56
2022-10-23T10:03:03.218Z,101359.38
2022-10-23T10:08:24.754Z,101329.41
2022-10-23T10:13:39.556Z,101307.00
2022-10-23T10:18:56.535Z,101297.66
2022-10-23T10:31:10.022Z,101261.88
2022-10-23T10:36:32.395Z,101255.13
2022-10-23T10:41:55.993Z,101225.88
2022-10-23T10:47:37.604Z,101224.25
2022-10-23T10:53:03.313Z,101201.78
2022-10-23T10:58:20.327Z,101182.03
2022-10-23T11:03:39.845Z,101164.78
2022-10-23T11:08:56.310Z,101141.47
2022-10-23T11:14:00.131Z,101128.72
2022-10-23T11:19:14.084Z,101112.16
2022-10-23T11:24:58.473Z,101093.13
2022-10-23T11:30:21.403Z,101097.44
2022-10-23T11:35:42.806Z,101078.56
2022-10-23T11:40:54.081Z,101056.03
2022-10-23T11:45:55.699Z,101037.09
2022-10-23T11:50:59.101Z,101045.03
2022-10-23T11:56:26.026Z,101017.31
2022-10-23T12:01:45.513Z,100985.31
2022-10-23T12:07:25.958Z,100959.41
2022-10-23T12:12:40.826Z,100921.28
2022-10-23T12:17:43.916Z,100897.00
2022-10-23T12:22:48.990Z,100875.34
2022-10-23T12:29:05.368Z,100839.66
2022-10-23T12:34:43.988Z,100798.81
2022-10-23T12:39:52.990Z,100780.53
2022-10-23T12:45:04.743Z,100785.69
2022-10-23T12:50:21.393Z,100749.19
2022-10-23T12:55:25.202Z,100730.06
2022-10-23T13:00:26.703Z,100725.63
2022-10-23T13:05:30.130Z,100713.47
2022-10-23T13:10:32.129Z,100701.25
2022-10-23T13:15:40.575Z,100698.59
2022-10-23T13:20:55.338Z,100688.09
2022-10-23T13:26:33.783Z,100689.81
2022-10-23T13:31:35.869Z,100685.47
2022-10-23T13:36:39.487Z,100682.09
2022-10-23T13:41:43.812Z,100676.06
2022-10-23T13:46:45.662Z,100671.78
2022-10-23T13:51:54.363Z,100658.75
2022-10-23T13:56:57.157Z,100652.66
2022-10-23T14:01:59.087Z,100650.88
2022-10-23T14:07:00.686Z,100639.63
2022-10-23T14:12:02.218Z,100623.97
2022-10-23T14:17:04.681Z,100617.91
2022-10-23T14:22:06.167Z,100599.63
2022-10-23T14:27:12.205Z,100594.38
2022-10-23T14:32:13.708Z,100597.00
2022-10-23T14:37:15.215Z,100592.69
2022-10-23T14:42:17.277Z,100594.44
2022-10-23T14:47:19.271Z,100577.94
2022-10-23T14:52:20.814Z,100548.41
2022-10-23T14:57:22.707Z,100544.06
2022-10-23T15:02:24.258Z,100544.16
2022-10-23T15:07:25.806Z,100545.94
2022-10-23T15:12:27.328Z,100541.63
2022-10-23T15:17:28.827Z,100555.59
2022-10-23T15:22:30.341Z,100556.56
2022-10-23T15:27:31.856Z,100546.97
2022-10-23T15:32:33.331Z,100541.88
2022-10-23T15:37:35.900Z,100534.09
2022-10-23T15:42:37.428Z,100535.84
2022-10-23T15:47:39.059Z,100534.91
2022-10-23T15:52:40.654Z,100527.16
2022-10-23T15:57:42.454Z,100542.00
2022-10-23T16:02:44.331Z,100542.91
2022-10-23T16:07:46.066Z,100544.72
2022-10-23T16:12:47.555Z,100541.28
2022-10-23T16:17:49.022Z,100553.44
2022-10-23T16:22:50.526Z,100548.25
2022-10-23T16:27:52.089Z,100540.47
2022-10-23T16:32:54.977Z,100531.81
2022-10-23T16:37:56.483Z,100522.22
2022-10-23T16:42:58.975Z,100517.06
2022-10-23T16:48:27.644Z,100484.06
2022-10-23T16:53:30.914Z,100417.34
2022-10-23T16:58:33.224Z,100413.09
2022-10-23T17:03:37.702Z,100416.47
2022-10-23T17:08:40.347Z,100411.28
2022-10-23T17:13:45.616Z,100471.13
2022-10-23T17:18:47.806Z,100525.75
2022-10-23T17:23:49.936Z,100557.03
2022-10-23T17:28:51.888Z,100550.94
2022-10-23T17:33:58.485Z,100537.09
2022-10-23T17:39:00.827Z,100539.69
2022-10-23T17:44:02.495Z,100552.78
2022-10-23T17:49:05.184Z,100537.94
2022-10-23T17:54:10.555Z,100543.22
2022-10-23T17:59:14.109Z,100545.81
2022-10-23T18:04:18.799Z,100550.19
2022-10-23T18:09:21.705Z,100562.34
2022-10-23T18:14:26.067Z,100560.59
2022-10-23T18:19:30.656Z,100551.91
2022-10-23T18:24:32.298Z,100538.00
2022-10-23T18:29:33.821Z,100539.69
2022-10-23T18:34:35.535Z,100541.47
2022-10-23T18:39:37.006Z,100511.09
2022-10-23T18:44:38.707Z,100506.75
2022-10-23T18:49:40.204Z,100524.09
2022-10-23T18:54:41.709Z,100517.19
2022-10-23T18:59:43.331Z,100505.09
2022-10-23T19:04:44.874Z,100517.19
2022-10-23T19:09:46.778Z,100526.81
2022-10-23T19:14:48.369Z,100531.19
2022-10-23T19:19:53.503Z,100523.38
2022-10-23T19:25:01.662Z,100532.91
2022-10-23T19:30:06.503Z,100504.38
2022-10-23T19:35:12.819Z,100488.78
2022-10-23T19:40:15.296Z,100491.38
2022-10-23T19:45:17.534Z,100480.09
2022-10-23T19:50:21.100Z,100487.88
2022-10-23T19:55:22.677Z,100500.91
2022-10-23T20:00:24.290Z,100515.66
2022-10-23T20:05:25.854Z,100580.66
2022-10-23T20:10:28.133Z,100640.47
2022-10-23T20:15:29.626Z,100642.13
2022-10-23T20:20:31.681Z,100657.78
2022-10-23T20:25:33.287Z,100659.50
2022-10-23T20:30:40.364Z,100609.16
2022-10-23T20:35:43.026Z,100591.00
2022-10-23T20:40:44.736Z,100671.69
2022-10-23T20:45:46.285Z,100738.31
2022-10-23T20:50:50.983Z,100729.63
2022-10-23T20:55:52.479Z,100732.22
2022-10-23T21:00:53.980Z,100711.41
2022-10-23T21:05:55.566Z,100735.66
2022-10-23T21:10:57.178Z,100724.44
2022-10-23T21:15:59.061Z,100701.13
2022-10-23T21:21:02.363Z,100656.09
2022-10-23T21:26:07.496Z,100626.59
2022-10-23T21:31:13.014Z,100645.69
2022-10-23T21:36:17.526Z,100668.16
2022-10-23T21:41:31.981Z,100675.09
2022-10-23T21:46:34.915Z,100685.47
2022-10-23T21:51:37.510Z,100720.06
2022-10-23T21:56:46.359Z,100745.06
2022-10-23T22:01:48.758Z,100773.59
2022-10-23T22:06:50.386Z,100786.50
2022-10-23T22:11:53.337Z,100777.00
2022-10-23T22:16:55.026Z,100783.88
2022-10-23T22:21:56.804Z,100780.44
2022-10-23T22:26:58.344Z,100776.16
2022-10-23T22:31:59.871Z,100751.16
2022-10-23T22:37:01.391Z,100741.63
2022-10-23T22:42:02.923Z,100726.91
2022-10-23T22:47:04.709Z,100734.72
2022-10-23T22:52:06.206Z,100740.78
2022-10-23T22:57:07.770Z,100746.81
2022-10-23T23:02:10.020Z,100742.53
2022-10-23T23:07:12.710Z,100737.28
2022-10-23T23:12:14.866Z,100744.16
2022-10-23T23:17:16.361Z,100735.53
2022-10-23T23:22:17.888Z,100749.31
2022-10-23T23:27:19.527Z,100744.13
2022-10-23T23:32:21.021Z,100726.00
2022-10-23T23:37:22.524Z,100714.72
2022-10-23T23:42:24.038Z,100715.59
2022-10-23T23:52:28.369Z,100694.00
2022-10-23T23:57:29.844Z,100680.13
